sensor_id;sensor_type;location;lat;lon;timestamp;temperature;humidity
58582;DHT22;44361;51.476;5.700;2023-12-29T00:01:16;10.90;99.90
58582;DHT22;44361;51.476;5.700;2023-12-29T00:03:42;10.80;99.90
58582;DHT22;44361;51.476;5.700;2023-12-29T00:06:07;10.90;99.90
58582;DHT22;44361;51.476;5.700;2023-12-29T00:08:33;10.90;99.90
58582;DHT22;44361;51.476;5.700;2023-12-29T00:10:59;10.90;99.90
58582;DHT22;44361;51.476;5.700;2023-12-29T00:13:25;10.90;99.90
58582;DHT22;44361;51.476;5.700;2023-12-29T00:15:54;10.80;99.90
58582;DHT22;44361;51.476;5.700;2023-12-29T00:18:20;10.80;99.90
58582;DHT22;44361;51.476;5.700;2023-12-29T00:20:47;10.80;99.90
58582;DHT22;44361;51.476;5.700;2023-12-29T00:23:12;10.90;99.90
58582;DHT22;44361;51.476;5.700;2023-12-29T00:25:38;10.80;99.90
58582;DHT22;44361;51.476;5.700;2023-12-29T00:28:05;10.80;99.90
58582;DHT22;44361;51.476;5.700;2023-12-29T00:30:30;10.80;99.90
58582;DHT22;44361;51.476;5.700;2023-12-29T00:32:56;10.90;99.90
58582;DHT22;44361;51.476;5.700;2023-12-29T00:35:22;10.80;99.90
58582;DHT22;44361;51.476;5.700;2023-12-29T00:37:47;10.90;99.90
58582;DHT22;44361;51.476;5.700;2023-12-29T00:40:13;10.90;99.90
58582;DHT22;44361;51.476;5.700;2023-12-29T00:42:38;10.90;99.90
58582;DHT22;44361;51.476;5.700;2023-12-29T00:45:05;10.90;99.90
58582;DHT22;44361;51.476;5.700;2023-12-29T00:47:32;10.90;99.90
58582;DHT22;44361;51.476;5.700;2023-12-29T00:49:57;10.90;99.90
58582;DHT22;44361;51.476;5.700;2023-12-29T00:52:23;10.80;99.90
58582;DHT22;44361;51.476;5.700;2023-12-29T00:54:48;10.90;99.90
58582;DHT22;44361;51.476;5.700;2023-12-29T00:57:14;10.80;99.90
58582;DHT22;44361;51.476;5.700;2023-12-29T00:59:41;10.80;99.90
58582;DHT22;44361;51.476;5.700;2023-12-29T01:02:07;10.80;99.90
58582;DHT22;44361;51.476;5.700;2023-12-29T01:04:33;10.80;99.90
58582;DHT22;44361;51.476;5.700;2023-12-29T01:06:59;10.80;99.90
58582;DHT22;44361;51.476;5.700;2023-12-29T01:09:26;10.80;99.90
58582;DHT22;44361;51.476;5.700;2023-12-29T01:11:51;10.70;99.90
58582;DHT22;44361;51.476;5.700;2023-12-29T01:14:17;10.40;99.90
58582;DHT22;44361;51.476;5.700;2023-12-29T01:16:42;10.20;99.90
58582;DHT22;44361;51.476;5.700;2023-12-29T01:19:08;10.00;99.90
58582;DHT22;44361;51.476;5.700;2023-12-29T01:21:33;9.90;99.90
58582;DHT22;44361;51.476;5.700;2023-12-29T01:24:02;9.70;99.90
58582;DHT22;44361;51.476;5.700;2023-12-29T01:26:41;9.60;99.90
58582;DHT22;44361;51.476;5.700;2023-12-29T01:29:06;9.50;99.90
58582;DHT22;44361;51.476;5.700;2023-12-29T01:31:32;9.50;99.90
58582;DHT22;44361;51.476;5.700;2023-12-29T01:33:58;9.40;99.90
58582;DHT22;44361;51.476;5.700;2023-12-29T01:36:23;9.40;99.90
58582;DHT22;44361;51.476;5.700;2023-12-29T01:38:49;9.30;99.90
58582;DHT22;44361;51.476;5.700;2023-12-29T01:41:15;9.30;99.90
58582;DHT22;44361;51.476;5.700;2023-12-29T01:46:29;9.20;99.90
58582;DHT22;44361;51.476;5.700;2023-12-29T01:48:55;9.20;99.90
58582;DHT22;44361;51.476;5.700;2023-12-29T01:51:24;9.20;99.90
58582;DHT22;44361;51.476;5.700;2023-12-29T01:53:54;9.10;99.90
58582;DHT22;44361;51.476;5.700;2023-12-29T01:56:20;9.10;99.90
58582;DHT22;44361;51.476;5.700;2023-12-29T01:58:48;9.10;99.90
58582;DHT22;44361;51.476;5.700;2023-12-29T02:01:14;9.10;99.90
58582;DHT22;44361;51.476;5.700;2023-12-29T02:03:40;9.10;99.90
58582;DHT22;44361;51.476;5.700;2023-12-29T02:06:06;9.00;99.90
58582;DHT22;44361;51.476;5.700;2023-12-29T02:08:33;9.00;99.90
58582;DHT22;44361;51.476;5.700;2023-12-29T02:10:59;9.10;99.90
58582;DHT22;44361;51.476;5.700;2023-12-29T02:13:24;9.10;99.90
58582;DHT22;44361;51.476;5.700;2023-12-29T02:15:55;9.00;99.90
58582;DHT22;44361;51.476;5.700;2023-12-29T02:18:26;9.10;99.90
58582;DHT22;44361;51.476;5.700;2023-12-29T02:20:53;9.10;99.90
58582;DHT22;44361;51.476;5.700;2023-12-29T02:23:19;9.10;99.90
58582;DHT22;44361;51.476;5.700;2023-12-29T02:25:44;9.10;99.90
58582;DHT22;44361;51.476;5.700;2023-12-29T02:28:26;9.10;99.90
58582;DHT22;44361;51.476;5.700;2023-12-29T02:31:14;9.20;99.90
58582;DHT22;44361;51.476;5.700;2023-12-29T02:33:43;9.20;99.90
58582;DHT22;44361;51.476;5.700;2023-12-29T02:36:10;9.20;99.90
58582;DHT22;44361;51.476;5.700;2023-12-29T02:38:38;9.20;99.90
58582;DHT22;44361;51.476;5.700;2023-12-29T02:41:04;9.30;99.90
58582;DHT22;44361;51.476;5.700;2023-12-29T02:43:33;9.40;99.90
58582;DHT22;44361;51.476;5.700;2023-12-29T02:45:59;9.40;99.90
58582;DHT22;44361;51.476;5.700;2023-12-29T02:48:24;9.40;99.90
58582;DHT22;44361;51.476;5.700;2023-12-29T02:50:50;9.50;99.90
58582;DHT22;44361;51.476;5.700;2023-12-29T02:53:16;9.50;99.90
58582;DHT22;44361;51.476;5.700;2023-12-29T02:55:42;9.50;99.90
58582;DHT22;44361;51.476;5.700;2023-12-29T02:58:08;9.60;99.90
58582;DHT22;44361;51.476;5.700;2023-12-29T03:00:34;9.60;99.90
58582;DHT22;44361;51.476;5.700;2023-12-29T03:02:59;9.60;99.90
58582;DHT22;44361;51.476;5.700;2023-12-29T03:05:25;9.70;99.90
58582;DHT22;44361;51.476;5.700;2023-12-29T03:07:51;9.70;99.90
58582;DHT22;44361;51.476;5.700;2023-12-29T03:10:16;9.70;99.90
58582;DHT22;44361;51.476;5.700;2023-12-29T03:12:42;9.70;99.90
58582;DHT22;44361;51.476;5.700;2023-12-29T03:15:08;9.80;99.90
58582;DHT22;44361;51.476;5.700;2023-12-29T03:17:34;9.80;99.90
58582;DHT22;44361;51.476;5.700;2023-12-29T03:20:00;9.80;99.90
58582;DHT22;44361;51.476;5.700;2023-12-29T03:22:26;9.90;99.90
58582;DHT22;44361;51.476;5.700;2023-12-29T03:24:51;9.90;99.90
58582;DHT22;44361;51.476;5.700;2023-12-29T03:27:17;9.90;99.90
58582;DHT22;44361;51.476;5.700;2023-12-29T03:29:42;9.90;99.90
58582;DHT22;44361;51.476;5.700;2023-12-29T03:32:08;9.90;99.90
58582;DHT22;44361;51.476;5.700;2023-12-29T03:34:33;9.90;99.90
58582;DHT22;44361;51.476;5.700;2023-12-29T03:36:59;9.90;99.90
58582;DHT22;44361;51.476;5.700;2023-12-29T03:39:24;10.00;99.90
58582;DHT22;44361;51.476;5.700;2023-12-29T03:41:50;10.00;99.90
58582;DHT22;44361;51.476;5.700;2023-12-29T03:44:15;10.00;99.90
58582;DHT22;44361;51.476;5.700;2023-12-29T03:46:43;10.10;99.90
58582;DHT22;44361;51.476;5.700;2023-12-29T03:49:09;10.10;99.90
58582;DHT22;44361;51.476;5.700;2023-12-29T03:51:34;10.10;99.90
58582;DHT22;44361;51.476;5.700;2023-12-29T03:54:00;10.10;99.90
58582;DHT22;44361;51.476;5.700;2023-12-29T03:56:26;10.10;99.90
58582;DHT22;44361;51.476;5.700;2023-12-29T03:58:52;10.10;99.90
58582;DHT22;44361;51.476;5.700;2023-12-29T04:01:18;10.20;99.90
58582;DHT22;44361;51.476;5.700;2023-12-29T04:03:44;10.20;99.90
58582;DHT22;44361;51.476;5.700;2023-12-29T04:06:10;10.30;99.90
58582;DHT22;44361;51.476;5.700;2023-12-29T04:08:36;10.30;99.90
58582;DHT22;44361;51.476;5.700;2023-12-29T04:11:02;10.30;99.90
58582;DHT22;44361;51.476;5.700;2023-12-29T04:13:28;10.30;99.90
58582;DHT22;44361;51.476;5.700;2023-12-29T04:15:54;10.30;99.90
58582;DHT22;44361;51.476;5.700;2023-12-29T04:18:21;10.30;99.90
58582;DHT22;44361;51.476;5.700;2023-12-29T04:20:47;10.30;99.90
58582;DHT22;44361;51.476;5.700;2023-12-29T04:23:13;10.30;99.90
58582;DHT22;44361;51.476;5.700;2023-12-29T04:25:39;10.40;99.90
58582;DHT22;44361;51.476;5.700;2023-12-29T04:28:04;10.40;99.90
58582;DHT22;44361;51.476;5.700;2023-12-29T04:30:30;10.40;99.90
58582;DHT22;44361;51.476;5.700;2023-12-29T04:32:55;10.30;99.90
58582;DHT22;44361;51.476;5.700;2023-12-29T04:35:21;10.30;99.90
58582;DHT22;44361;51.476;5.700;2023-12-29T04:37:47;10.30;99.90
58582;DHT22;44361;51.476;5.700;2023-12-29T04:40:12;10.30;99.90
58582;DHT22;44361;51.476;5.700;2023-12-29T04:42:38;10.30;99.90
58582;DHT22;44361;51.476;5.700;2023-12-29T04:45:04;10.20;99.90
58582;DHT22;44361;51.476;5.700;2023-12-29T04:47:30;10.30;99.90
58582;DHT22;44361;51.476;5.700;2023-12-29T04:49:56;10.30;99.90
58582;DHT22;44361;51.476;5.700;2023-12-29T04:52:22;10.30;99.90
58582;DHT22;44361;51.476;5.700;2023-12-29T04:54:48;10.30;99.90
58582;DHT22;44361;51.476;5.700;2023-12-29T04:57:13;10.20;99.90
58582;DHT22;44361;51.476;5.700;2023-12-29T04:59:39;10.20;99.90
58582;DHT22;44361;51.476;5.700;2023-12-29T05:02:04;10.20;99.90
58582;DHT22;44361;51.476;5.700;2023-12-29T05:04:30;10.20;99.90
58582;DHT22;44361;51.476;5.700;2023-12-29T05:06:56;10.20;99.90
58582;DHT22;44361;51.476;5.700;2023-12-29T05:09:21;10.20;99.90
58582;DHT22;44361;51.476;5.700;2023-12-29T05:11:47;10.10;99.90
58582;DHT22;44361;51.476;5.700;2023-12-29T05:14:13;10.20;99.90
58582;DHT22;44361;51.476;5.700;2023-12-29T05:16:38;10.20;99.90
58582;DHT22;44361;51.476;5.700;2023-12-29T05:19:04;10.10;99.90
58582;DHT22;44361;51.476;5.700;2023-12-29T05:21:29;10.20;99.90
58582;DHT22;44361;51.476;5.700;2023-12-29T05:23:56;10.20;99.90
58582;DHT22;44361;51.476;5.700;2023-12-29T05:26:22;10.10;99.90
58582;DHT22;44361;51.476;5.700;2023-12-29T05:28:47;10.10;99.90
58582;DHT22;44361;51.476;5.700;2023-12-29T05:31:13;10.10;99.90
58582;DHT22;44361;51.476;5.700;2023-12-29T05:33:38;10.10;99.90
58582;DHT22;44361;51.476;5.700;2023-12-29T05:36:08;10.10;99.90
58582;DHT22;44361;51.476;5.700;2023-12-29T05:38:35;10.10;99.90
58582;DHT22;44361;51.476;5.700;2023-12-29T05:41:04;10.10;99.90
58582;DHT22;44361;51.476;5.700;2023-12-29T05:43:33;10.20;99.90
58582;DHT22;44361;51.476;5.700;2023-12-29T05:46:00;10.10;99.90
58582;DHT22;44361;51.476;5.700;2023-12-29T05:48:26;10.10;99.90
58582;DHT22;44361;51.476;5.700;2023-12-29T05:50:52;10.10;99.90
58582;DHT22;44361;51.476;5.700;2023-12-29T05:53:18;10.10;99.90
58582;DHT22;44361;51.476;5.700;2023-12-29T05:55:44;10.00;99.90
58582;DHT22;44361;51.476;5.700;2023-12-29T05:58:10;10.00;99.90
58582;DHT22;44361;51.476;5.700;2023-12-29T06:00:37;10.00;99.90
58582;DHT22;44361;51.476;5.700;2023-12-29T06:03:03;10.00;99.90
58582;DHT22;44361;51.476;5.700;2023-12-29T06:05:32;9.90;99.90
58582;DHT22;44361;51.476;5.700;2023-12-29T06:07:58;10.10;99.90
58582;DHT22;44361;51.476;5.700;2023-12-29T06:10:23;10.10;99.90
58582;DHT22;44361;51.476;5.700;2023-12-29T06:12:49;10.10;99.90
58582;DHT22;44361;51.476;5.700;2023-12-29T06:15:15;10.10;99.90
58582;DHT22;44361;51.476;5.700;2023-12-29T06:17:41;10.10;99.90
58582;DHT22;44361;51.476;5.700;2023-12-29T06:20:07;10.10;99.90
58582;DHT22;44361;51.476;5.700;2023-12-29T06:22:39;10.20;99.90
58582;DHT22;44361;51.476;5.700;2023-12-29T06:25:09;10.20;99.90
58582;DHT22;44361;51.476;5.700;2023-12-29T06:27:36;10.20;99.90
58582;DHT22;44361;51.476;5.700;2023-12-29T06:30:05;10.10;99.90
58582;DHT22;44361;51.476;5.700;2023-12-29T06:32:31;10.20;99.90
58582;DHT22;44361;51.476;5.700;2023-12-29T06:34:57;10.20;99.90
58582;DHT22;44361;51.476;5.700;2023-12-29T06:37:22;10.10;99.90
58582;DHT22;44361;51.476;5.700;2023-12-29T06:39:48;10.10;99.90
58582;DHT22;44361;51.476;5.700;2023-12-29T06:42:13;10.10;99.90
58582;DHT22;44361;51.476;5.700;2023-12-29T06:44:39;10.10;99.90
58582;DHT22;44361;51.476;5.700;2023-12-29T06:47:05;10.10;99.90
58582;DHT22;44361;51.476;5.700;2023-12-29T06:49:35;10.00;99.90
58582;DHT22;44361;51.476;5.700;2023-12-29T06:52:01;10.10;99.90
58582;DHT22;44361;51.476;5.700;2023-12-29T06:54:27;10.00;99.90
58582;DHT22;44361;51.476;5.700;2023-12-29T06:56:52;10.00;99.90
58582;DHT22;44361;51.476;5.700;2023-12-29T06:59:18;10.10;99.90
58582;DHT22;44361;51.476;5.700;2023-12-29T07:01:45;10.00;99.90
58582;DHT22;44361;51.476;5.700;2023-12-29T07:04:11;9.90;99.90
58582;DHT22;44361;51.476;5.700;2023-12-29T07:06:37;9.90;99.90
58582;DHT22;44361;51.476;5.700;2023-12-29T07:09:03;9.80;99.90
58582;DHT22;44361;51.476;5.700;2023-12-29T07:11:29;9.80;99.90
58582;DHT22;44361;51.476;5.700;2023-12-29T07:13:55;9.80;99.90
58582;DHT22;44361;51.476;5.700;2023-12-29T07:16:20;9.80;99.90
58582;DHT22;44361;51.476;5.700;2023-12-29T07:18:46;9.80;99.90
58582;DHT22;44361;51.476;5.700;2023-12-29T07:21:13;9.80;99.90
58582;DHT22;44361;51.476;5.700;2023-12-29T07:23:39;9.80;99.90
58582;DHT22;44361;51.476;5.700;2023-12-29T07:26:06;9.80;99.90
58582;DHT22;44361;51.476;5.700;2023-12-29T07:28:34;9.80;99.90
58582;DHT22;44361;51.476;5.700;2023-12-29T07:31:00;9.80;99.90
58582;DHT22;44361;51.476;5.700;2023-12-29T07:33:26;9.80;99.90
58582;DHT22;44361;51.476;5.700;2023-12-29T07:35:52;9.80;99.90
58582;DHT22;44361;51.476;5.700;2023-12-29T07:38:18;9.80;99.90
58582;DHT22;44361;51.476;5.700;2023-12-29T07:40:44;9.80;99.90
58582;DHT22;44361;51.476;5.700;2023-12-29T07:43:09;9.80;99.90
58582;DHT22;44361;51.476;5.700;2023-12-29T07:45:35;9.80;99.90
58582;DHT22;44361;51.476;5.700;2023-12-29T07:48:04;9.80;99.90
58582;DHT22;44361;51.476;5.700;2023-12-29T07:50:30;9.80;99.90
58582;DHT22;44361;51.476;5.700;2023-12-29T07:52:55;9.70;99.90
58582;DHT22;44361;51.476;5.700;2023-12-29T07:55:21;9.60;99.90
58582;DHT22;44361;51.476;5.700;2023-12-29T07:57:47;9.60;99.90
58582;DHT22;44361;51.476;5.700;2023-12-29T08:00:16;9.60;99.90
58582;DHT22;44361;51.476;5.700;2023-12-29T08:02:42;9.60;99.90
58582;DHT22;44361;51.476;5.700;2023-12-29T08:05:07;9.60;99.90
58582;DHT22;44361;51.476;5.700;2023-12-29T08:07:36;9.60;99.90
58582;DHT22;44361;51.476;5.700;2023-12-29T08:10:06;9.70;99.90
58582;DHT22;44361;51.476;5.700;2023-12-29T08:12:32;9.70;99.90
58582;DHT22;44361;51.476;5.700;2023-12-29T08:14:59;9.70;99.90
58582;DHT22;44361;51.476;5.700;2023-12-29T08:17:25;9.70;99.90
58582;DHT22;44361;51.476;5.700;2023-12-29T08:19:50;9.70;99.90
58582;DHT22;44361;51.476;5.700;2023-12-29T08:22:16;9.70;99.90
58582;DHT22;44361;51.476;5.700;2023-12-29T08:24:41;9.80;99.90
58582;DHT22;44361;51.476;5.700;2023-12-29T08:27:09;9.80;99.90
58582;DHT22;44361;51.476;5.700;2023-12-29T08:29:36;9.80;99.90
58582;DHT22;44361;51.476;5.700;2023-12-29T08:32:01;9.80;99.90
58582;DHT22;44361;51.476;5.700;2023-12-29T08:34:27;9.80;99.90
58582;DHT22;44361;51.476;5.700;2023-12-29T08:36:53;9.80;99.90
58582;DHT22;44361;51.476;5.700;2023-12-29T08:39:19;9.80;99.90
58582;DHT22;44361;51.476;5.700;2023-12-29T08:41:44;9.80;99.90
58582;DHT22;44361;51.476;5.700;2023-12-29T08:44:10;9.80;99.90
58582;DHT22;44361;51.476;5.700;2023-12-29T08:46:35;9.80;99.90
58582;DHT22;44361;51.476;5.700;2023-12-29T08:49:01;9.80;99.90
58582;DHT22;44361;51.476;5.700;2023-12-29T08:51:27;9.80;99.90
58582;DHT22;44361;51.476;5.700;2023-12-29T08:53:52;9.80;99.90
58582;DHT22;44361;51.476;5.700;2023-12-29T08:56:18;9.90;99.90
58582;DHT22;44361;51.476;5.700;2023-12-29T08:58:43;9.90;99.90
58582;DHT22;44361;51.476;5.700;2023-12-29T09:01:09;9.90;99.90
58582;DHT22;44361;51.476;5.700;2023-12-29T09:03:34;9.90;99.90
58582;DHT22;44361;51.476;5.700;2023-12-29T09:06:00;9.90;99.90
58582;DHT22;44361;51.476;5.700;2023-12-29T09:08:26;9.90;99.90
58582;DHT22;44361;51.476;5.700;2023-12-29T09:10:52;9.90;99.90
58582;DHT22;44361;51.476;5.700;2023-12-29T09:13:18;9.90;99.90
58582;DHT22;44361;51.476;5.700;2023-12-29T09:15:48;9.80;99.90
58582;DHT22;44361;51.476;5.700;2023-12-29T09:18:13;9.80;99.90
58582;DHT22;44361;51.476;5.700;2023-12-29T09:20:39;9.80;99.90
58582;DHT22;44361;51.476;5.700;2023-12-29T09:23:05;9.80;99.90
58582;DHT22;44361;51.476;5.700;2023-12-29T09:25:30;9.80;99.90
58582;DHT22;44361;51.476;5.700;2023-12-29T09:27:56;9.80;99.90
58582;DHT22;44361;51.476;5.700;2023-12-29T09:30:21;9.80;99.90
58582;DHT22;44361;51.476;5.700;2023-12-29T09:32:47;9.80;99.90
58582;DHT22;44361;51.476;5.700;2023-12-29T09:35:13;9.80;99.90
58582;DHT22;44361;51.476;5.700;2023-12-29T09:37:38;9.80;99.90
58582;DHT22;44361;51.476;5.700;2023-12-29T09:40:04;9.80;99.90
58582;DHT22;44361;51.476;5.700;2023-12-29T09:42:31;9.90;99.90
58582;DHT22;44361;51.476;5.700;2023-12-29T09:44:57;9.90;99.90
58582;DHT22;44361;51.476;5.700;2023-12-29T09:47:26;9.90;99.90
58582;DHT22;44361;51.476;5.700;2023-12-29T09:49:52;9.90;99.90
58582;DHT22;44361;51.476;5.700;2023-12-29T09:52:20;10.00;99.90
58582;DHT22;44361;51.476;5.700;2023-12-29T09:54:48;10.10;99.90
58582;DHT22;44361;51.476;5.700;2023-12-29T09:57:14;10.10;99.90
58582;DHT22;44361;51.476;5.700;2023-12-29T09:59:41;10.10;99.90
58582;DHT22;44361;51.476;5.700;2023-12-29T10:02:15;10.10;99.90
58582;DHT22;44361;51.476;5.700;2023-12-29T10:04:41;10.20;99.90
58582;DHT22;44361;51.476;5.700;2023-12-29T10:07:08;10.20;99.90
58582;DHT22;44361;51.476;5.700;2023-12-29T10:09:37;10.20;99.90
58582;DHT22;44361;51.476;5.700;2023-12-29T10:12:09;10.20;99.90
58582;DHT22;44361;51.476;5.700;2023-12-29T10:15:02;10.20;99.90
58582;DHT22;44361;51.476;5.700;2023-12-29T10:17:44;10.10;99.90
58582;DHT22;44361;51.476;5.700;2023-12-29T10:23:16;10.20;99.90
58582;DHT22;44361;51.476;5.700;2023-12-29T10:25:43;10.20;99.90
58582;DHT22;44361;51.476;5.700;2023-12-29T10:28:13;10.30;99.90
58582;DHT22;44361;51.476;5.700;2023-12-29T10:30:38;10.30;99.90
58582;DHT22;44361;51.476;5.700;2023-12-29T10:33:04;10.40;99.90
58582;DHT22;44361;51.476;5.700;2023-12-29T10:35:30;10.50;99.90
58582;DHT22;44361;51.476;5.700;2023-12-29T10:38:12;10.50;99.90
58582;DHT22;44361;51.476;5.700;2023-12-29T10:40:38;10.50;99.90
58582;DHT22;44361;51.476;5.700;2023-12-29T10:43:03;10.40;99.90
58582;DHT22;44361;51.476;5.700;2023-12-29T10:45:33;10.50;99.90
58582;DHT22;44361;51.476;5.700;2023-12-29T10:48:00;10.50;99.90
58582;DHT22;44361;51.476;5.700;2023-12-29T10:50:26;10.60;99.90
58582;DHT22;44361;51.476;5.700;2023-12-29T10:53:10;10.60;99.90
58582;DHT22;44361;51.476;5.700;2023-12-29T10:55:36;10.70;99.90
58582;DHT22;44361;51.476;5.700;2023-12-29T10:58:02;10.60;99.90
58582;DHT22;44361;51.476;5.700;2023-12-29T11:00:31;10.70;99.90
58582;DHT22;44361;51.476;5.700;2023-12-29T11:02:58;10.70;99.90
58582;DHT22;44361;51.476;5.700;2023-12-29T11:05:27;10.70;99.90
58582;DHT22;44361;51.476;5.700;2023-12-29T11:07:54;10.80;99.90
58582;DHT22;44361;51.476;5.700;2023-12-29T11:10:20;10.90;99.90
58582;DHT22;44361;51.476;5.700;2023-12-29T11:12:47;10.90;99.90
58582;DHT22;44361;51.476;5.700;2023-12-29T11:15:14;10.90;99.90
58582;DHT22;44361;51.476;5.700;2023-12-29T11:17:42;10.90;99.90
58582;DHT22;44361;51.476;5.700;2023-12-29T11:20:15;11.00;99.90
58582;DHT22;44361;51.476;5.700;2023-12-29T11:22:43;11.00;99.90
58582;DHT22;44361;51.476;5.700;2023-12-29T11:25:09;11.00;99.90
58582;DHT22;44361;51.476;5.700;2023-12-29T11:27:35;11.00;99.90
58582;DHT22;44361;51.476;5.700;2023-12-29T11:30:03;11.10;99.90
58582;DHT22;44361;51.476;5.700;2023-12-29T11:32:49;11.00;99.90
58582;DHT22;44361;51.476;5.700;2023-12-29T11:35:29;11.00;99.90
58582;DHT22;44361;51.476;5.700;2023-12-29T11:40:55;10.60;99.90
58582;DHT22;44361;51.476;5.700;2023-12-29T11:43:22;10.40;99.90
58582;DHT22;44361;51.476;5.700;2023-12-29T11:45:49;10.20;99.90
58582;DHT22;44361;51.476;5.700;2023-12-29T11:51:34;10.00;99.90
58582;DHT22;44361;51.476;5.700;2023-12-29T11:54:01;9.90;99.90
58582;DHT22;44361;51.476;5.700;2023-12-29T11:56:34;9.90;99.90
58582;DHT22;44361;51.476;5.700;2023-12-29T11:59:30;9.90;99.90
58582;DHT22;44361;51.476;5.700;2023-12-29T12:01:58;9.80;99.90
58582;DHT22;44361;51.476;5.700;2023-12-29T12:04:42;9.80;99.90
58582;DHT22;44361;51.476;5.700;2023-12-29T12:09:49;9.80;99.90
58582;DHT22;44361;51.476;5.700;2023-12-29T12:12:38;9.80;99.90
58582;DHT22;44361;51.476;5.700;2023-12-29T12:15:04;9.70;99.90
58582;DHT22;44361;51.476;5.700;2023-12-29T12:17:50;9.70;99.90
58582;DHT22;44361;51.476;5.700;2023-12-29T12:20:15;9.70;99.90
58582;DHT22;44361;51.476;5.700;2023-12-29T12:22:41;9.60;99.90
58582;DHT22;44361;51.476;5.700;2023-12-29T12:25:11;9.60;99.90
58582;DHT22;44361;51.476;5.700;2023-12-29T12:27:38;9.60;99.90
58582;DHT22;44361;51.476;5.700;2023-12-29T12:30:04;9.50;99.90
58582;DHT22;44361;51.476;5.700;2023-12-29T12:32:30;9.40;99.90
58582;DHT22;44361;51.476;5.700;2023-12-29T12:34:56;9.40;99.90
58582;DHT22;44361;51.476;5.700;2023-12-29T12:37:27;9.40;99.90
58582;DHT22;44361;51.476;5.700;2023-12-29T12:39:53;9.30;99.90
58582;DHT22;44361;51.476;5.700;2023-12-29T12:42:20;9.30;99.90
58582;DHT22;44361;51.476;5.700;2023-12-29T12:45:12;9.40;99.90
58582;DHT22;44361;51.476;5.700;2023-12-29T12:47:44;9.40;99.90
58582;DHT22;44361;51.476;5.700;2023-12-29T12:50:11;9.40;99.90
58582;DHT22;44361;51.476;5.700;2023-12-29T12:52:38;9.40;99.90
58582;DHT22;44361;51.476;5.700;2023-12-29T12:55:07;9.50;99.90
58582;DHT22;44361;51.476;5.700;2023-12-29T12:57:34;9.50;99.90
58582;DHT22;44361;51.476;5.700;2023-12-29T13:00:00;9.60;99.90
58582;DHT22;44361;51.476;5.700;2023-12-29T13:02:27;9.60;99.90
58582;DHT22;44361;51.476;5.700;2023-12-29T13:04:54;9.60;99.90
58582;DHT22;44361;51.476;5.700;2023-12-29T13:07:20;9.70;99.90
58582;DHT22;44361;51.476;5.700;2023-12-29T13:09:46;9.70;99.90
58582;DHT22;44361;51.476;5.700;2023-12-29T13:12:14;9.60;99.90
58582;DHT22;44361;51.476;5.700;2023-12-29T13:14:41;9.60;99.90
58582;DHT22;44361;51.476;5.700;2023-12-29T13:17:14;9.60;99.90
58582;DHT22;44361;51.476;5.700;2023-12-29T13:19:46;9.60;99.90
58582;DHT22;44361;51.476;5.700;2023-12-29T13:22:12;9.60;99.90
58582;DHT22;44361;51.476;5.700;2023-12-29T13:24:44;9.60;99.90
58582;DHT22;44361;51.476;5.700;2023-12-29T13:27:10;9.50;99.90
58582;DHT22;44361;51.476;5.700;2023-12-29T13:29:37;9.50;99.90
58582;DHT22;44361;51.476;5.700;2023-12-29T13:32:16;9.50;99.90
58582;DHT22;44361;51.476;5.700;2023-12-29T13:35:06;9.50;99.90
58582;DHT22;44361;51.476;5.700;2023-12-29T13:40:26;9.50;99.90
58582;DHT22;44361;51.476;5.700;2023-12-29T13:42:57;9.70;99.90
58582;DHT22;44361;51.476;5.700;2023-12-29T13:45:24;10.00;99.90
58582;DHT22;44361;51.476;5.700;2023-12-29T13:47:50;10.10;99.90
58582;DHT22;44361;51.476;5.700;2023-12-29T13:50:16;10.30;99.90
58582;DHT22;44361;51.476;5.700;2023-12-29T13:52:42;10.50;99.90
58582;DHT22;44361;51.476;5.700;2023-12-29T13:55:08;10.50;99.90
58582;DHT22;44361;51.476;5.700;2023-12-29T13:57:34;10.50;99.90
58582;DHT22;44361;51.476;5.700;2023-12-29T14:00:17;10.60;99.90
58582;DHT22;44361;51.476;5.700;2023-12-29T14:02:48;10.70;99.90
58582;DHT22;44361;51.476;5.700;2023-12-29T14:06:18;10.60;99.90
58582;DHT22;44361;51.476;5.700;2023-12-29T14:08:44;10.70;99.90
58582;DHT22;44361;51.476;5.700;2023-12-29T14:11:10;10.70;99.90
58582;DHT22;44361;51.476;5.700;2023-12-29T14:13:42;10.60;99.90
58582;DHT22;44361;51.476;5.700;2023-12-29T14:16:07;10.70;99.90
58582;DHT22;44361;51.476;5.700;2023-12-29T14:20:59;10.70;99.90
58582;DHT22;44361;51.476;5.700;2023-12-29T14:23:25;10.70;99.90
58582;DHT22;44361;51.476;5.700;2023-12-29T14:25:50;10.60;99.90
58582;DHT22;44361;51.476;5.700;2023-12-29T14:30:42;10.60;99.90
58582;DHT22;44361;51.476;5.700;2023-12-29T14:33:07;10.60;99.90
58582;DHT22;44361;51.476;5.700;2023-12-29T14:35:33;10.60;99.90
58582;DHT22;44361;51.476;5.700;2023-12-29T14:37:59;10.60;99.90
58582;DHT22;44361;51.476;5.700;2023-12-29T14:40:25;10.60;99.90
58582;DHT22;44361;51.476;5.700;2023-12-29T14:42:50;10.60;99.90
58582;DHT22;44361;51.476;5.700;2023-12-29T14:45:16;10.60;99.90
58582;DHT22;44361;51.476;5.700;2023-12-29T14:47:41;10.60;99.90
58582;DHT22;44361;51.476;5.700;2023-12-29T14:50:07;10.70;99.90
58582;DHT22;44361;51.476;5.700;2023-12-29T14:52:33;10.60;99.90
58582;DHT22;44361;51.476;5.700;2023-12-29T14:54:59;10.60;99.90
58582;DHT22;44361;51.476;5.700;2023-12-29T14:57:24;10.60;99.90
58582;DHT22;44361;51.476;5.700;2023-12-29T14:59:50;10.50;99.90
58582;DHT22;44361;51.476;5.700;2023-12-29T15:02:15;10.50;99.90
58582;DHT22;44361;51.476;5.700;2023-12-29T15:04:41;10.50;99.90
58582;DHT22;44361;51.476;5.700;2023-12-29T15:07:06;10.50;99.90
58582;DHT22;44361;51.476;5.700;2023-12-29T15:09:32;10.50;99.90
58582;DHT22;44361;51.476;5.700;2023-12-29T15:12:01;10.40;99.90
58582;DHT22;44361;51.476;5.700;2023-12-29T15:14:27;10.50;99.90
58582;DHT22;44361;51.476;5.700;2023-12-29T15:16:53;10.40;99.90
58582;DHT22;44361;51.476;5.700;2023-12-29T15:19:18;10.40;99.90
58582;DHT22;44361;51.476;5.700;2023-12-29T15:21:44;10.40;99.90
58582;DHT22;44361;51.476;5.700;2023-12-29T15:24:09;10.30;99.90
58582;DHT22;44361;51.476;5.700;2023-12-29T15:26:35;10.30;99.90
58582;DHT22;44361;51.476;5.700;2023-12-29T15:29:01;10.30;99.90
58582;DHT22;44361;51.476;5.700;2023-12-29T15:31:26;10.20;99.90
58582;DHT22;44361;51.476;5.700;2023-12-29T15:33:52;10.20;99.90
58582;DHT22;44361;51.476;5.700;2023-12-29T15:36:18;10.20;99.90
58582;DHT22;44361;51.476;5.700;2023-12-29T15:38:51;10.20;99.90
58582;DHT22;44361;51.476;5.700;2023-12-29T15:41:17;10.20;99.90
58582;DHT22;44361;51.476;5.700;2023-12-29T15:43:43;10.30;99.90
58582;DHT22;44361;51.476;5.700;2023-12-29T15:46:17;10.20;99.90
58582;DHT22;44361;51.476;5.700;2023-12-29T15:48:43;10.30;99.90
58582;DHT22;44361;51.476;5.700;2023-12-29T15:51:09;10.20;99.90
58582;DHT22;44361;51.476;5.700;2023-12-29T15:53:35;10.20;99.90
58582;DHT22;44361;51.476;5.700;2023-12-29T15:56:01;10.10;99.90
58582;DHT22;44361;51.476;5.700;2023-12-29T15:58:28;10.10;99.90
58582;DHT22;44361;51.476;5.700;2023-12-29T16:00:54;10.10;99.90